Main page
METAR-TAF:

METAR-TAF

Airports :

Gwadar International Airport

Gwadar, Pakistan

latitude: 25-13-59N, longitude: 062-19-46E, elevation: 29 m

METAR: missing

Time: 19:17 (14:17 UTC)

Forecast

The report was made 4 hours and 47 minutes ago, at 09:30 UTC
Forecast valid from 18 at 12 UTC to 19 at 12 UTC
Wind 10 kt from the Southwest
Visibility: 4000 m
Scattered clouds at a height of 2000 ft
haze
Becoming
from 18 at 19 UTC to 18 at 21 UTC
Wind 8 kt from the West/Southwest
Visibility: 3000 m
Broken clouds at a height of 2000 ft
smoke
Temporary
from 19 at 00 UTC to 19 at 04 UTC
Wind 5 kt from the South
Visibility: 2000 m
Scattered clouds at a height of 2000 ft
mist
From 19 at 0600 UTC
Wind 12 kt from the Southwest
Visibility: 4000 m
Broken clouds at a height of 2000 ft
haze

TAF: OPGD 180930Z 1812/1912 23010KT 4000 HZ SCT020 BECMG 1819/1821 24008KT 3000 FU BKN020 TEMPO 1900/1904 18005KT 2000 BR SCT020 FM190600 23012KT 4000 HZ BKN020

Weather observations and forecasts of more than 4000 airports (METAR and TAF reports).

The available stations are represented by yellow and red dots on the map.

Hover mouse over dot to see the name of the station.

Then click to see weather observations and forecasts.

To change the map : click on the green buttons with a black cross to zoom in, on the green button with a dash to zoom out, or on the green arrows for adjacent maps.


METAR-TAF: